Terminal Aerodrome Forecast
Issued by NWS Amarillo, TX

Home | Current Version | Previous Version | Text Only | Print | Product List | Glossary On
Versions: 1 2 3 4 5 6 7 8 9 10 11 12 13 14 15 16 17 18 19 20 21
397
FTUS44 KAMA 062328
TAFDHT
TAF
KDHT 062328Z 0700/0724 20008KT P6SM SKC
     FM070600 33009KT P6SM SKC
     FM071600 03013KT P6SM SKC=

USA.gov is the U.S. government's official web portal to all federal, state and local government web resources and services.